createdAt,value
2023-05-12T00:01:24.066Z,6.40
2023-05-12T00:03:53.605Z,3.97
2023-05-12T00:06:20.987Z,2.97
2023-05-12T00:08:47.556Z,3.20
2023-05-12T00:11:14.258Z,2.47
2023-05-12T00:13:41.025Z,4.15
2023-05-12T00:16:07.813Z,2.63
2023-05-12T00:18:34.492Z,3.53
2023-05-12T00:21:01.192Z,4.18
2023-05-12T00:23:27.863Z,3.88
2023-05-12T00:25:54.526Z,4.03
2023-05-12T00:28:21.138Z,3.25
2023-05-12T00:30:47.813Z,3.35
2023-05-12T00:33:14.554Z,3.38
2023-05-12T00:35:41.251Z,3.90
2023-05-12T00:38:08.089Z,2.42
2023-05-12T00:40:34.857Z,3.25
2023-05-12T00:43:01.560Z,3.28
2023-05-12T00:45:29.832Z,6.68
2023-05-12T00:47:57.310Z,3.10
2023-05-12T00:50:25.093Z,3.22
2023-05-12T00:52:52.658Z,3.13
2023-05-12T00:55:19.708Z,2.90
2023-05-12T00:57:46.620Z,3.55
2023-05-12T01:00:15.528Z,3.75
2023-05-12T01:02:44.717Z,3.45
2023-05-12T01:05:11.924Z,3.35
2023-05-12T01:07:40.374Z,4.47
2023-05-12T01:10:21.401Z,3.55
2023-05-12T01:12:48.627Z,2.85
2023-05-12T01:15:19.184Z,2.58
2023-05-12T01:17:56.314Z,3.78
2023-05-12T01:20:26.914Z,3.28
2023-05-12T01:22:55.438Z,2.95
2023-05-12T01:25:24.590Z,2.80
2023-05-12T01:27:52.891Z,4.05
2023-05-12T01:30:22.039Z,4.65
2023-05-12T01:32:49.145Z,2.92
2023-05-12T01:35:16.349Z,3.92
2023-05-12T01:37:48.888Z,3.08
2023-05-12T01:40:16.460Z,5.07
2023-05-12T01:42:43.466Z,2.75
2023-05-12T01:45:11.953Z,2.58
2023-05-12T01:47:38.713Z,3.92
2023-05-12T01:50:07.893Z,4.70
2023-05-12T01:52:34.855Z,4.65
2023-05-12T01:55:01.885Z,4.22
2023-05-12T01:57:34.706Z,3.42
2023-05-12T02:00:02.232Z,4.03
2023-05-12T02:02:31.531Z,3.25
2023-05-12T02:04:59.633Z,3.50
2023-05-12T02:07:26.224Z,3.80
2023-05-12T02:09:53.126Z,3.63
2023-05-12T02:12:20.358Z,3.95
2023-05-12T02:14:47.155Z,3.58
2023-05-12T02:17:14.480Z,3.08
2023-05-12T02:19:41.376Z,2.92
2023-05-12T02:22:10.836Z,5.00
2023-05-12T02:24:37.463Z,4.03
2023-05-12T02:27:04.359Z,4.50
2023-05-12T02:29:31.017Z,3.95
2023-05-12T02:31:59.643Z,3.35
2023-05-12T02:34:26.674Z,3.08
2023-05-12T02:36:53.319Z,4.80
2023-05-12T02:39:20.002Z,4.00
2023-05-12T02:41:46.893Z,5.43
2023-05-12T02:44:13.588Z,4.35
2023-05-12T02:46:40.340Z,3.08
2023-05-12T02:49:07.221Z,4.47
2023-05-12T02:51:33.828Z,3.38
2023-05-12T02:54:01.392Z,5.22
2023-05-12T02:56:28.980Z,4.63
2023-05-12T02:58:55.620Z,4.90
2023-05-12T03:01:22.251Z,4.60
2023-05-12T03:03:49.048Z,4.70
2023-05-12T03:06:16.065Z,4.25
2023-05-12T03:08:42.696Z,4.15
2023-05-12T03:11:09.288Z,6.53
2023-05-12T03:13:36.042Z,5.43
2023-05-12T03:16:02.863Z,4.18
2023-05-12T03:18:30.406Z,6.28
2023-05-12T03:20:57.126Z,7.35
2023-05-12T03:23:24.707Z,5.28
2023-05-12T03:25:51.608Z,5.15
2023-05-12T03:28:18.331Z,4.97
2023-05-12T03:30:45.119Z,4.43
2023-05-12T03:33:11.798Z,5.45
2023-05-12T03:35:38.484Z,4.68
2023-05-12T03:38:05.241Z,6.45
2023-05-12T03:40:32.007Z,5.53
2023-05-12T03:42:59.622Z,7.32
2023-05-12T03:45:26.284Z,5.07
2023-05-12T03:47:53.602Z,6.25
2023-05-12T03:50:20.431Z,4.60
2023-05-12T03:52:47.217Z,4.63
2023-05-12T03:55:15.494Z,5.43
2023-05-12T03:57:42.809Z,5.25
2023-05-12T04:00:10.005Z,5.20
2023-05-12T04:02:39.860Z,6.22
2023-05-12T04:05:08.621Z,4.38
2023-05-12T04:07:35.804Z,5.07
2023-05-12T04:10:03.034Z,8.43
2023-05-12T04:12:30.045Z,8.13
2023-05-12T04:14:57.266Z,5.40
2023-05-12T04:17:25.106Z,6.30
2023-05-12T04:19:53.432Z,5.18
2023-05-12T04:22:20.201Z,5.22
2023-05-12T04:24:46.871Z,4.40
2023-05-12T04:27:13.498Z,7.10
2023-05-12T04:29:40.428Z,4.60
2023-05-12T04:32:07.755Z,5.22
2023-05-12T04:34:35.104Z,8.07
2023-05-12T04:37:01.950Z,6.22
2023-05-12T04:39:29.712Z,5.53
2023-05-12T04:41:57.540Z,6.85
2023-05-12T04:44:24.831Z,7.03
2023-05-12T04:46:54.054Z,5.35
2023-05-12T04:49:20.823Z,5.10
2023-05-12T04:51:48.121Z,6.28
2023-05-12T04:54:14.872Z,4.75
2023-05-12T04:56:42.335Z,5.13
2023-05-12T04:59:09.195Z,4.57
2023-05-12T05:01:36.028Z,5.63
2023-05-12T05:04:03.143Z,5.97
2023-05-12T05:06:31.769Z,6.72
2023-05-12T05:08:59.713Z,6.20
2023-05-12T05:11:26.746Z,5.07
2023-05-12T05:13:53.396Z,4.28
2023-05-12T05:16:20.494Z,5.45
2023-05-12T05:18:48.002Z,5.10
2023-05-12T05:21:15.099Z,5.15
2023-05-12T05:23:42.428Z,4.22
2023-05-12T05:26:09.689Z,4.20
2023-05-12T05:28:39.766Z,4.28
2023-05-12T05:31:07.458Z,3.88
2023-05-12T05:33:35.349Z,5.35
2023-05-12T05:36:03.247Z,4.95
2023-05-12T05:38:31.121Z,5.47
2023-05-12T05:40:57.826Z,5.45
2023-05-12T05:43:25.986Z,4.65
2023-05-12T05:45:53.342Z,5.47
2023-05-12T05:48:21.835Z,4.75
2023-05-12T05:50:51.253Z,3.80
2023-05-12T05:53:19.619Z,5.00
2023-05-12T05:55:49.580Z,5.80
2023-05-12T05:58:16.548Z,3.53
2023-05-12T06:00:44.383Z,7.03
2023-05-12T06:03:11.651Z,5.88
2023-05-12T06:05:38.730Z,4.82
2023-05-12T06:08:08.914Z,4.97
2023-05-12T06:10:35.553Z,5.28
2023-05-12T06:13:02.218Z,5.45
2023-05-12T06:15:28.895Z,4.60
2023-05-12T06:17:55.757Z,6.80
2023-05-12T06:20:23.441Z,5.35
2023-05-12T06:22:50.127Z,5.07
2023-05-12T06:25:17.669Z,4.70
2023-05-12T06:27:44.330Z,6.05
2023-05-12T06:30:14.344Z,4.90
2023-05-12T06:32:42.568Z,6.10
2023-05-12T06:35:09.562Z,4.15
2023-05-12T06:37:36.376Z,4.15
2023-05-12T06:40:03.325Z,4.60
2023-05-12T06:42:30.732Z,4.47
2023-05-12T06:44:57.377Z,7.07
2023-05-12T06:47:24.076Z,4.57
2023-05-12T06:49:50.890Z,6.82
2023-05-12T06:52:17.654Z,4.47
2023-05-12T06:54:44.281Z,3.35
2023-05-12T06:57:10.915Z,4.97
2023-05-12T06:59:37.502Z,5.22
2023-05-12T07:02:04.254Z,5.65
2023-05-12T07:04:31.064Z,3.33
2023-05-12T07:06:57.800Z,3.47
2023-05-12T07:09:24.574Z,3.30
2023-05-12T07:11:53.199Z,3.28
2023-05-12T07:14:19.853Z,3.88
2023-05-12T07:16:46.838Z,3.90
2023-05-12T07:19:13.542Z,5.72
2023-05-12T07:21:40.491Z,3.75
2023-05-12T07:24:08.341Z,4.97
2023-05-12T07:26:35.056Z,3.63
2023-05-12T07:29:02.651Z,3.00
2023-05-12T07:31:29.464Z,2.78
2023-05-12T07:33:56.149Z,3.85
2023-05-12T07:36:23.089Z,2.63
2023-05-12T07:38:49.884Z,2.65
2023-05-12T07:41:17.401Z,2.78
2023-05-12T07:43:44.222Z,5.10
2023-05-12T07:46:10.997Z,4.15
2023-05-12T07:48:40.150Z,4.95
2023-05-12T07:51:07.480Z,3.08
2023-05-12T07:53:34.443Z,4.00
2023-05-12T07:56:02.177Z,5.03
2023-05-12T07:58:28.920Z,3.25
2023-05-12T08:00:57.050Z,4.43
2023-05-12T08:03:23.790Z,2.60
2023-05-12T08:05:50.511Z,4.00
2023-05-12T08:08:17.309Z,2.92
2023-05-12T08:10:44.581Z,3.03
2023-05-12T08:13:11.350Z,3.63
2023-05-12T08:15:38.718Z,3.50
2023-05-12T08:18:05.702Z,4.45
2023-05-12T08:20:32.408Z,2.83
2023-05-12T08:22:58.989Z,2.63
2023-05-12T08:25:27.809Z,2.78
2023-05-12T08:27:54.401Z,3.75
2023-05-12T08:30:21.097Z,2.15
2023-05-12T08:32:47.917Z,3.00
2023-05-12T08:35:14.737Z,3.88
2023-05-12T08:37:41.421Z,3.47
2023-05-12T08:40:17.592Z,2.72
2023-05-12T08:42:58.390Z,4.75
2023-05-12T08:45:26.889Z,3.67
2023-05-12T08:47:54.510Z,4.00
2023-05-12T08:50:23.394Z,5.32
2023-05-12T08:52:50.257Z,3.72
2023-05-12T08:55:19.309Z,4.70
2023-05-12T08:57:48.467Z,3.83
2023-05-12T09:00:16.446Z,3.25
2023-05-12T09:02:53.259Z,2.22
2023-05-12T09:05:22.062Z,4.13
2023-05-12T09:07:50.111Z,4.00
2023-05-12T09:10:32.979Z,4.20
2023-05-12T09:13:13.149Z,2.83
2023-05-12T09:15:43.164Z,2.95
2023-05-12T09:18:11.229Z,2.42
2023-05-12T09:20:37.887Z,3.78
2023-05-12T09:23:19.059Z,3.47
2023-05-12T09:25:47.219Z,2.97
2023-05-12T09:28:15.338Z,2.35
2023-05-12T09:30:42.600Z,4.05
2023-05-12T09:33:12.291Z,3.30
2023-05-12T09:35:44.250Z,3.40
2023-05-12T09:38:13.009Z,3.47
2023-05-12T09:40:40.070Z,4.18
2023-05-12T09:43:07.839Z,2.80
2023-05-12T09:45:38.983Z,4.10
2023-05-12T09:48:11.021Z,3.35
2023-05-12T09:50:51.295Z,2.85
2023-05-12T09:55:47.662Z,4.80
2023-05-12T09:58:19.448Z,2.88
2023-05-12T10:03:18.464Z,3.85
2023-05-12T10:05:50.051Z,4.07
2023-05-12T10:08:22.624Z,3.47
2023-05-12T10:10:52.264Z,2.95
2023-05-12T10:13:19.089Z,3.78
2023-05-12T10:15:48.303Z,6.68
2023-05-12T10:18:16.660Z,3.55
2023-05-12T10:20:47.674Z,3.13
2023-05-12T10:23:16.921Z,4.18
2023-05-12T10:25:44.616Z,4.25
2023-05-12T10:28:11.847Z,3.85
2023-05-12T10:30:40.228Z,3.38
2023-05-12T10:33:09.850Z,3.00
2023-05-12T10:35:37.896Z,3.47
2023-05-12T10:38:09.694Z,2.33
2023-05-12T10:40:36.384Z,4.13
2023-05-12T10:43:03.623Z,4.00
2023-05-12T10:45:37.258Z,3.03
2023-05-12T10:48:09.048Z,3.05
2023-05-12T10:50:35.744Z,5.55
2023-05-12T10:53:02.437Z,3.95
2023-05-12T10:55:32.217Z,5.28
2023-05-12T10:58:25.944Z,4.45
2023-05-12T11:00:55.019Z,3.92
2023-05-12T11:03:27.249Z,3.20
2023-05-12T11:06:05.376Z,3.72
2023-05-12T11:08:35.713Z,3.35
2023-05-12T11:11:03.308Z,4.03
2023-05-12T11:13:32.707Z,3.60
2023-05-12T11:15:59.454Z,3.92
2023-05-12T11:18:26.136Z,3.58
2023-05-12T11:20:52.834Z,4.53
2023-05-12T11:23:29.482Z,6.93
2023-05-12T11:25:57.095Z,4.50
2023-05-12T11:28:23.970Z,3.90
2023-05-12T11:30:55.184Z,3.63
2023-05-12T11:33:23.226Z,3.20
2023-05-12T11:35:50.723Z,5.95
2023-05-12T11:38:18.991Z,4.88
2023-05-12T11:40:45.808Z,6.60
2023-05-12T11:43:15.132Z,3.13
2023-05-12T11:45:42.247Z,3.85
2023-05-12T11:48:13.958Z,3.95
2023-05-12T11:50:43.788Z,4.65
2023-05-12T11:53:17.194Z,4.68
2023-05-12T11:55:56.867Z,3.70
2023-05-12T11:58:26.873Z,3.50
2023-05-12T12:00:54.525Z,4.75
2023-05-12T12:03:21.435Z,3.30
2023-05-12T12:06:03.749Z,3.42
2023-05-12T12:08:31.053Z,3.20
2023-05-12T12:10:58.052Z,4.10
2023-05-12T12:13:26.152Z,3.58
2023-05-12T12:15:55.255Z,3.45
2023-05-12T12:18:21.905Z,5.53
2023-05-12T12:20:48.725Z,4.15
2023-05-12T12:23:15.470Z,3.22
2023-05-12T12:25:43.586Z,4.75
2023-05-12T12:28:10.357Z,4.47
2023-05-12T12:30:37.612Z,3.65
2023-05-12T12:33:04.271Z,6.03
2023-05-12T12:35:31.192Z,4.88
2023-05-12T12:37:58.276Z,3.63
2023-05-12T12:40:25.035Z,5.18
2023-05-12T12:42:51.786Z,4.90
2023-05-12T12:45:20.706Z,4.38
2023-05-12T12:47:47.637Z,5.40
2023-05-12T12:50:15.294Z,3.75
2023-05-12T12:52:42.091Z,2.90
2023-05-12T12:55:09.956Z,2.90
2023-05-12T12:57:36.767Z,4.45
2023-05-12T13:00:05.603Z,2.83
2023-05-12T13:02:33.202Z,4.45
2023-05-12T13:05:04.096Z,4.78
2023-05-12T13:07:30.776Z,3.85
2023-05-12T13:09:57.892Z,3.03
2023-05-12T13:12:24.707Z,4.10
2023-05-12T13:14:52.911Z,2.63
2023-05-12T13:17:19.564Z,3.08
2023-05-12T13:19:46.245Z,4.63
2023-05-12T13:22:12.857Z,3.88
2023-05-12T13:24:39.522Z,4.40
2023-05-12T13:27:08.623Z,2.92
2023-05-12T13:29:36.177Z,4.53
2023-05-12T13:32:03.678Z,4.53
2023-05-12T13:34:30.431Z,2.72
2023-05-12T13:36:57.242Z,4.03
2023-05-12T13:39:23.818Z,3.65
2023-05-12T13:41:50.831Z,2.92
2023-05-12T13:44:17.517Z,3.80
2023-05-12T13:46:44.245Z,4.60
2023-05-12T13:49:11.037Z,3.38
2023-05-12T13:51:38.332Z,3.33
2023-05-12T13:54:04.875Z,3.08
2023-05-12T13:56:31.600Z,3.20
2023-05-12T13:58:58.499Z,3.55
2023-05-12T14:01:25.634Z,2.45
2023-05-12T14:03:52.244Z,4.28
2023-05-12T14:06:19.921Z,2.75
2023-05-12T14:08:46.583Z,2.92
2023-05-12T14:11:13.338Z,2.35
2023-05-12T14:13:40.124Z,2.42
2023-05-12T14:16:07.103Z,1.88
2023-05-12T14:18:33.789Z,2.20
2023-05-12T14:21:01.611Z,3.58
2023-05-12T14:23:28.373Z,3.97
2023-05-12T14:25:55.586Z,2.42
2023-05-12T14:28:23.373Z,3.47
2023-05-12T14:30:50.610Z,5.47
2023-05-12T14:33:17.606Z,3.95
2023-05-12T14:35:52.763Z,3.40
2023-05-12T14:38:22.881Z,4.07
2023-05-12T14:40:50.043Z,3.25
2023-05-12T14:43:17.279Z,4.72
2023-05-12T14:45:44.431Z,5.38
2023-05-12T14:48:11.451Z,2.50
2023-05-12T14:50:38.165Z,3.00
2023-05-12T14:53:06.274Z,2.70
2023-05-12T14:55:33.576Z,3.83
2023-05-12T14:58:00.403Z,3.10
2023-05-12T15:00:27.354Z,3.60
2023-05-12T15:02:54.097Z,3.58
2023-05-12T15:05:22.792Z,3.13
2023-05-12T15:07:52.278Z,2.85
2023-05-12T15:10:19.869Z,3.35
2023-05-12T15:12:46.440Z,2.25
2023-05-12T15:15:13.165Z,3.70
2023-05-12T15:17:39.894Z,2.83
2023-05-12T15:20:07.949Z,1.85
2023-05-12T15:22:34.573Z,3.17
2023-05-12T15:25:01.532Z,3.30
2023-05-12T15:27:28.204Z,3.22
2023-05-12T15:29:55.399Z,2.63
2023-05-12T15:32:22.263Z,3.00
2023-05-12T15:34:49.083Z,1.80
2023-05-12T15:37:15.738Z,1.85
2023-05-12T15:39:42.679Z,2.35
2023-05-12T15:42:10.719Z,4.63
2023-05-12T15:44:38.993Z,3.77
2023-05-12T15:47:06.117Z,3.17
2023-05-12T15:49:32.801Z,1.88
2023-05-12T15:51:59.422Z,2.95
2023-05-12T15:54:26.601Z,2.83
2023-05-12T15:56:53.224Z,2.38
2023-05-12T15:59:19.881Z,2.67
2023-05-12T16:01:46.766Z,3.78
2023-05-12T16:04:13.494Z,2.42
2023-05-12T16:06:40.503Z,3.30
2023-05-12T16:09:08.329Z,2.42
2023-05-12T16:11:35.002Z,2.95
2023-05-12T16:14:02.709Z,3.40
2023-05-12T16:16:30.134Z,4.82
2023-05-12T16:18:56.888Z,2.40
2023-05-12T16:21:23.932Z,4.47
2023-05-12T16:23:50.534Z,3.15
2023-05-12T16:26:19.323Z,3.53
2023-05-12T16:28:46.352Z,4.13
2023-05-12T16:31:17.904Z,4.30
2023-05-12T16:33:44.837Z,3.35
2023-05-12T16:36:11.528Z,4.28
2023-05-12T16:38:38.389Z,3.03
2023-05-12T16:41:05.310Z,5.25
2023-05-12T16:43:32.219Z,5.32
2023-05-12T16:46:01.628Z,5.95
2023-05-12T16:48:38.011Z,4.32
2023-05-12T16:51:09.125Z,3.30
2023-05-12T16:53:36.518Z,3.75
2023-05-12T16:56:03.244Z,5.07
2023-05-12T16:58:33.492Z,3.05
2023-05-12T17:01:01.050Z,4.40
2023-05-12T17:03:28.757Z,2.90
2023-05-12T17:05:55.590Z,3.40
2023-05-12T17:08:22.359Z,2.63
2023-05-12T17:10:49.268Z,2.53
2023-05-12T17:13:17.018Z,2.25
2023-05-12T17:15:43.797Z,2.17
2023-05-12T17:18:10.572Z,3.38
2023-05-12T17:20:37.153Z,2.55
2023-05-12T17:23:03.951Z,3.38
2023-05-12T17:25:31.364Z,3.08
2023-05-12T17:27:58.441Z,2.72
2023-05-12T17:30:25.199Z,4.28
2023-05-12T17:32:52.042Z,3.13
2023-05-12T17:35:19.291Z,3.20
2023-05-12T17:37:46.072Z,2.90
2023-05-12T17:40:16.287Z,3.65
2023-05-12T17:42:43.092Z,2.97
2023-05-12T17:45:10.186Z,3.88
2023-05-12T17:47:37.411Z,3.92
2023-05-12T17:50:04.347Z,2.70
2023-05-12T17:52:31.228Z,2.88
2023-05-12T17:54:57.867Z,3.42
2023-05-12T17:57:24.521Z,3.00
2023-05-12T17:59:51.356Z,2.78
2023-05-12T18:02:18.378Z,3.97
2023-05-12T18:04:46.760Z,2.55
2023-05-12T18:07:14.811Z,2.80
2023-05-12T18:09:41.903Z,5.35
2023-05-12T18:12:09.256Z,3.28
2023-05-12T18:14:35.990Z,3.47
2023-05-12T18:17:02.709Z,4.05
2023-05-12T18:19:29.544Z,4.53
2023-05-12T18:21:56.283Z,3.92
2023-05-12T18:24:22.965Z,5.00
2023-05-12T18:26:49.898Z,4.28
2023-05-12T18:29:16.531Z,3.80
2023-05-12T18:31:44.174Z,3.97
2023-05-12T18:34:11.168Z,4.82
2023-05-12T18:36:37.824Z,5.00
2023-05-12T18:39:04.970Z,4.97
2023-05-12T18:41:31.625Z,3.03
2023-05-12T18:43:58.255Z,4.18
2023-05-12T18:46:25.705Z,4.82
2023-05-12T18:48:52.520Z,6.40
2023-05-12T18:51:19.135Z,3.70
2023-05-12T18:53:45.808Z,4.35
2023-05-12T18:56:12.568Z,6.25
2023-05-12T18:58:39.283Z,5.47
2023-05-12T19:01:06.857Z,5.00
2023-05-12T19:03:33.578Z,5.57
2023-05-12T19:06:00.197Z,7.13
2023-05-12T19:08:26.988Z,6.28
2023-05-12T19:10:53.643Z,3.83
2023-05-12T19:13:20.281Z,4.22
2023-05-12T19:15:47.263Z,6.13
2023-05-12T19:18:13.809Z,5.22
2023-05-12T19:20:40.571Z,5.00
2023-05-12T19:23:07.233Z,7.13
2023-05-12T19:25:34.105Z,5.50
2023-05-12T19:28:01.022Z,4.38
2023-05-12T19:30:29.115Z,5.53
2023-05-12T19:32:55.959Z,5.53
2023-05-12T19:35:22.992Z,6.25
2023-05-12T19:37:49.884Z,6.95
2023-05-12T19:40:16.468Z,4.60
2023-05-12T19:42:43.210Z,4.43
2023-05-12T19:45:10.694Z,5.15
2023-05-12T19:47:37.625Z,4.95
2023-05-12T19:50:04.809Z,5.03
2023-05-12T19:52:31.724Z,5.03
2023-05-12T19:54:58.387Z,4.80
2023-05-12T19:57:25.022Z,6.30
2023-05-12T19:59:51.949Z,7.88
2023-05-12T20:02:19.428Z,4.70
2023-05-12T20:04:46.804Z,4.85
2023-05-12T20:07:13.469Z,6.68
2023-05-12T20:09:40.106Z,10.93
2023-05-12T20:12:08.107Z,18.17
2023-05-12T20:14:38.444Z,22.00
2023-05-12T20:17:07.169Z,11.50
2023-05-12T20:19:33.953Z,7.75
2023-05-12T20:22:01.720Z,5.50
2023-05-12T20:24:28.609Z,6.15
2023-05-12T20:26:55.642Z,8.43
2023-05-12T20:29:22.296Z,8.05
2023-05-12T20:31:50.687Z,6.78
2023-05-12T20:34:18.589Z,4.80
2023-05-12T20:36:46.525Z,7.63
2023-05-12T20:39:14.203Z,3.67
2023-05-12T20:41:42.340Z,4.13
2023-05-12T20:44:09.338Z,4.25
2023-05-12T20:46:38.263Z,3.17
2023-05-12T20:49:06.418Z,3.58
2023-05-12T20:51:33.408Z,5.15
2023-05-12T20:54:00.156Z,4.57
2023-05-12T20:56:26.930Z,4.43
2023-05-12T20:58:53.860Z,4.32
2023-05-12T21:01:21.472Z,10.40
2023-05-12T21:03:48.541Z,10.07
2023-05-12T21:06:15.479Z,22.38
2023-05-12T21:08:42.292Z,18.35
2023-05-12T21:11:18.749Z,13.65
2023-05-12T21:13:46.996Z,9.68
2023-05-12T21:16:14.779Z,9.75
2023-05-12T21:18:41.595Z,9.18
2023-05-12T21:21:08.259Z,9.20
2023-05-12T21:23:36.445Z,11.65
2023-05-12T21:26:04.102Z,9.48
2023-05-12T21:28:31.179Z,7.75
2023-05-12T21:30:57.856Z,6.90
2023-05-12T21:33:24.472Z,11.43
2023-05-12T21:35:51.154Z,8.90
2023-05-12T21:38:17.798Z,9.68
2023-05-12T21:40:44.485Z,10.43
2023-05-12T21:43:11.197Z,7.85
2023-05-12T21:45:37.834Z,6.47
2023-05-12T21:48:04.728Z,6.45
2023-05-12T21:50:31.583Z,3.92
2023-05-12T21:52:58.205Z,4.25
2023-05-12T21:55:24.977Z,5.40
2023-05-12T21:57:51.560Z,4.25
2023-05-12T22:00:20.188Z,5.40
2023-05-12T22:02:50.592Z,5.57
2023-05-12T22:05:17.526Z,5.55
2023-05-12T22:07:44.157Z,7.57
2023-05-12T22:10:10.789Z,4.97
2023-05-12T22:12:37.961Z,7.35
2023-05-12T22:15:05.070Z,5.75
2023-05-12T22:17:31.786Z,5.72
2023-05-12T22:19:58.485Z,4.57
2023-05-12T22:22:25.167Z,4.65
2023-05-12T22:24:51.996Z,6.72
2023-05-12T22:27:22.399Z,5.55
2023-05-12T22:29:49.658Z,6.18
2023-05-12T22:32:16.520Z,6.78
2023-05-12T22:34:43.189Z,6.03
2023-05-12T22:37:09.779Z,5.60
2023-05-12T22:39:36.358Z,6.03
2023-05-12T22:42:03.266Z,4.70
2023-05-12T22:44:30.035Z,6.43
2023-05-12T22:46:57.262Z,4.65
2023-05-12T22:49:24.320Z,4.65
2023-05-12T22:51:51.420Z,5.35
2023-05-12T22:54:18.036Z,6.70
2023-05-12T22:56:44.843Z,6.63
2023-05-12T22:59:11.586Z,5.97
2023-05-12T23:01:38.269Z,6.00
2023-05-12T23:04:05.203Z,5.22
2023-05-12T23:06:32.478Z,5.75
2023-05-12T23:08:59.190Z,4.78
2023-05-12T23:11:25.884Z,6.43
2023-05-12T23:13:52.640Z,5.57
2023-05-12T23:16:19.341Z,6.13
2023-05-12T23:18:46.165Z,6.78
2023-05-12T23:21:12.890Z,4.97
2023-05-12T23:23:39.577Z,5.38
2023-05-12T23:26:06.211Z,4.95
2023-05-12T23:28:32.851Z,5.90
2023-05-12T23:30:59.506Z,5.93
2023-05-12T23:33:26.325Z,5.72
2023-05-12T23:35:52.974Z,7.30
2023-05-12T23:38:19.796Z,5.90
2023-05-12T23:40:46.384Z,5.95
2023-05-12T23:43:13.018Z,4.72
2023-05-12T23:45:39.665Z,4.18
2023-05-12T23:48:06.567Z,5.45
2023-05-12T23:50:33.246Z,7.60
2023-05-12T23:52:59.848Z,5.75
2023-05-12T23:55:26.588Z,5.80
2023-05-12T23:57:53.203Z,6.93
